Time;durP1;ratioP1;P1;durP2;ratioP2;P2;SDS_P1;SDS_P2;PMS_P1;PMS_P2;Temp;Humidity;BMP_temperature;BMP_pressure;BME280_temperature;BME280_humidity;BME280_pressure;Samples;Min_cycle;Max_cycle;Signal;HPM_P1;HPM_P2
2021/05/05 00:01:00;;;;;;;0.03;0.03;;;;;;;;;;5010867;28;20174;-74
2021/05/05 00:03:26;;;;;;;0.00;0.00;;;;;;;;;;5007710;28;20182;-74
2021/05/05 00:05:53;;;;;;;0.20;0.20;;;;;;;;;;5017249;28;20652;-74
2021/05/05 00:08:20;;;;;;;0.10;0.10;;;;;;;;;;5008829;28;20264;-74
2021/05/05 00:10:47;;;;;;;0.38;0.20;;;;;;;;;;4991394;28;20234;-74
2021/05/05 00:13:14;;;;;;;0.10;0.10;;;;;;;;;;5008791;28;20167;-74
2021/05/05 00:15:41;;;;;;;9.07;1.08;;;;;;;;;;4991399;28;20178;-74
2021/05/05 00:18:07;;;;;;;0.08;0.08;;;;;;;;;;5008670;28;20195;-74
2021/05/05 00:20:33;;;;;;;0.17;0.17;;;;;;;;;;5008785;28;20203;-74
2021/05/05 00:23:00;;;;;;;1.65;0.38;;;;;;;;;;5008570;28;20223;-74
2021/05/05 00:25:26;;;;;;;0.43;0.20;;;;;;;;;;5008684;28;20202;-74
2021/05/05 00:27:53;;;;;;;0.10;0.10;;;;;;;;;;4991007;28;20194;-74
2021/05/05 00:30:20;;;;;;;0.00;0.00;;;;;;;;;;4990756;28;20245;-73
2021/05/05 00:32:46;;;;;;;0.10;0.10;;;;;;;;;;5008755;28;20636;-74
2021/05/05 00:35:13;;;;;;;0.63;0.63;;;;;;;;;;4991093;28;20174;-74
2021/05/05 00:37:40;;;;;;;0.00;0.00;;;;;;;;;;5008716;28;20190;-74
2021/05/05 00:40:07;;;;;;;0.45;0.45;;;;;;;;;;5008719;28;20300;-74
2021/05/05 00:42:34;;;;;;;0.10;0.10;;;;;;;;;;4990941;28;20238;-74
2021/05/05 00:45:01;;;;;;;2.45;1.20;;;;;;;;;;4999973;28;20209;-74
2021/05/05 00:47:27;;;;;;;0.05;0.05;;;;;;;;;;5028157;28;20332;-73
2021/05/05 00:49:54;;;;;;;0.10;0.10;;;;;;;;;;5010646;28;20223;-74
2021/05/05 00:52:20;;;;;;;0.50;0.50;;;;;;;;;;5028483;28;20158;-74
2021/05/05 00:54:46;;;;;;;0.00;0.00;;;;;;;;;;5010857;28;20229;-74
2021/05/05 00:57:13;;;;;;;0.22;0.22;;;;;;;;;;5011679;28;20564;-74
2021/05/05 00:59:40;;;;;;;0.00;0.00;;;;;;;;;;5011622;28;20220;-73
2021/05/05 01:02:06;;;;;;;0.80;0.80;;;;;;;;;;5010494;28;20185;-74
2021/05/05 01:04:32;;;;;;;0.20;0.20;;;;;;;;;;5010253;28;20281;-74
2021/05/05 01:06:59;;;;;;;0.22;0.22;;;;;;;;;;5006951;28;20302;-74
2021/05/05 01:09:25;;;;;;;0.08;0.08;;;;;;;;;;5008385;28;20161;-74
2021/05/05 01:11:52;;;;;;;0.25;0.25;;;;;;;;;;5008299;28;20202;-74
2021/05/05 01:14:19;;;;;;;0.22;0.22;;;;;;;;;;5006962;28;20167;-75
2021/05/05 01:16:45;;;;;;;0.10;0.10;;;;;;;;;;5004068;28;20668;-74
2021/05/05 01:19:11;;;;;;;0.10;0.10;;;;;;;;;;5027586;28;20230;-75
2021/05/05 01:21:37;;;;;;;0.10;0.10;;;;;;;;;;5010237;28;20177;-75
2021/05/05 01:24:05;;;;;;;0.10;0.10;;;;;;;;;;5027618;28;20236;-74
2021/05/05 01:26:31;;;;;;;0.20;0.20;;;;;;;;;;5027953;28;20197;-74
2021/05/05 01:29:00;;;;;;;0.10;0.10;;;;;;;;;;5010331;28;20228;-74
2021/05/05 01:31:27;;;;;;;0.10;0.10;;;;;;;;;;5010398;28;20174;-74
2021/05/05 01:33:54;;;;;;;0.50;0.50;;;;;;;;;;5027767;28;20162;-74
2021/05/05 01:36:21;;;;;;;0.00;0.00;;;;;;;;;;5010071;28;20190;-75
2021/05/05 01:38:47;;;;;;;0.10;0.10;;;;;;;;;;5027595;28;20158;-74
2021/05/05 01:41:14;;;;;;;0.57;0.57;;;;;;;;;;5029276;28;20162;-74
2021/05/05 01:43:41;;;;;;;0.05;0.05;;;;;;;;;;5013667;28;20543;-74
2021/05/05 01:46:07;;;;;;;0.10;0.10;;;;;;;;;;5013347;28;20214;-74
2021/05/05 01:48:33;;;;;;;0.03;0.03;;;;;;;;;;5013499;28;20203;-74
2021/05/05 01:51:00;;;;;;;0.10;0.10;;;;;;;;;;5031155;28;20182;-74
2021/05/05 01:53:26;;;;;;;0.10;0.10;;;;;;;;;;5031074;28;20186;-75
2021/05/05 01:55:52;;;;;;;0.05;0.05;;;;;;;;;;5013371;28;20213;-74
2021/05/05 01:58:18;;;;;;;0.10;0.10;;;;;;;;;;5030874;28;20179;-74
2021/05/05 02:00:44;;;;;;;0.30;0.30;;;;;;;;;;5030770;28;20177;-74
2021/05/05 02:03:11;;;;;;;0.10;0.10;;;;;;;;;;5030839;28;20680;-74
2021/05/05 02:05:37;;;;;;;1.05;0.32;;;;;;;;;;5013018;28;20214;-73
2021/05/05 02:08:04;;;;;;;0.10;0.10;;;;;;;;;;5013178;28;20174;-73
2021/05/05 02:10:30;;;;;;;0.63;0.63;;;;;;;;;;5012881;28;20531;-74
2021/05/05 02:12:56;;;;;;;0.10;0.10;;;;;;;;;;5030672;28;20159;-73
2021/05/05 02:15:23;;;;;;;0.63;0.63;;;;;;;;;;5012969;28;20293;-73
2021/05/05 02:17:50;;;;;;;0.28;0.28;;;;;;;;;;5030553;28;20241;-74
2021/05/05 02:20:17;;;;;;;0.45;0.45;;;;;;;;;;5030259;28;20158;-73
2021/05/05 02:22:43;;;;;;;0.00;0.00;;;;;;;;;;5012749;28;20621;-73
2021/05/05 02:25:10;;;;;;;0.00;0.00;;;;;;;;;;5030148;28;20238;-73
2021/05/05 02:27:37;;;;;;;0.05;0.05;;;;;;;;;;5030484;28;20162;-73
2021/05/05 02:30:04;;;;;;;0.20;0.20;;;;;;;;;;5012750;28;20192;-73
2021/05/05 02:32:30;;;;;;;0.10;0.10;;;;;;;;;;5030712;28;20168;-74
2021/05/05 02:34:57;;;;;;;0.10;0.10;;;;;;;;;;5012563;28;20181;-74
2021/05/05 02:37:24;;;;;;;0.25;0.17;;;;;;;;;;5030154;28;20233;-74
2021/05/05 02:39:50;;;;;;;4.47;1.85;;;;;;;;;;5030122;28;20166;-74
2021/05/05 02:42:17;;;;;;;0.20;0.20;;;;;;;;;;5030297;28;20709;-74
2021/05/05 02:44:45;;;;;;;0.10;0.10;;;;;;;;;;5029727;28;20529;-75
2021/05/05 02:47:12;;;;;;;0.30;0.30;;;;;;;;;;5029676;28;20221;-74
2021/05/05 02:49:38;;;;;;;0.13;0.13;;;;;;;;;;5030173;28;20166;-74
2021/05/05 02:52:05;;;;;;;0.00;0.00;;;;;;;;;;5012355;28;20177;-74
2021/05/05 02:54:32;;;;;;;0.10;0.10;;;;;;;;;;5012159;28;20189;-75
2021/05/05 02:56:59;;;;;;;4.68;1.85;;;;;;;;;;5029886;28;20220;-75
2021/05/05 02:59:25;;;;;;;0.40;0.40;;;;;;;;;;5029686;28;20166;-75
2021/05/05 03:01:52;;;;;;;0.10;0.10;;;;;;;;;;5011492;28;20277;-75
2021/05/05 03:04:19;;;;;;;0.38;0.38;;;;;;;;;;5011805;28;20217;-73
2021/05/05 03:06:45;;;;;;;0.10;0.10;;;;;;;;;;5029329;28;20648;-76
2021/05/05 03:09:12;;;;;;;0.10;0.10;;;;;;;;;;5011787;28;20177;-76
2021/05/05 03:11:39;;;;;;;0.35;0.35;;;;;;;;;;5029528;28;20166;-74
2021/05/05 03:14:05;;;;;;;0.10;0.10;;;;;;;;;;5029433;28;20537;-75
2021/05/05 03:16:31;;;;;;;0.20;0.20;;;;;;;;;;5011410;28;20220;-75
2021/05/05 03:18:58;;;;;;;0.10;0.10;;;;;;;;;;5029272;28;20162;-74
2021/05/05 03:21:24;;;;;;;0.20;0.20;;;;;;;;;;5011442;28;20560;-74
2021/05/05 03:23:50;;;;;;;0.08;0.08;;;;;;;;;;5011207;28;20574;-74
2021/05/05 03:26:16;;;;;;;0.10;0.10;;;;;;;;;;5029071;28;20537;-73
2021/05/05 03:28:42;;;;;;;0.00;0.00;;;;;;;;;;5029029;28;20184;-73
2021/05/05 03:31:09;;;;;;;0.68;0.68;;;;;;;;;;5011156;28;20209;-74
2021/05/05 03:33:36;;;;;;;0.22;0.22;;;;;;;;;;5029200;28;20159;-73
2021/05/05 03:36:02;;;;;;;4.15;0.55;;;;;;;;;;5011276;28;20268;-77
2021/05/05 03:38:29;;;;;;;0.63;0.63;;;;;;;;;;5029125;28;20309;-74
2021/05/05 03:40:55;;;;;;;0.10;0.10;;;;;;;;;;5010969;28;20216;-74
2021/05/05 03:43:21;;;;;;;0.20;0.20;;;;;;;;;;5011264;28;20174;-75
2021/05/05 03:45:47;;;;;;;0.50;0.50;;;;;;;;;;5011168;28;20271;-75
2021/05/05 03:48:14;;;;;;;0.20;0.20;;;;;;;;;;5028681;28;20166;-75
2021/05/05 03:50:41;;;;;;;0.40;0.40;;;;;;;;;;5011158;28;20194;-75
2021/05/05 03:53:08;;;;;;;0.32;0.32;;;;;;;;;;5010962;28;20265;-77
2021/05/05 03:55:34;;;;;;;0.25;0.25;;;;;;;;;;5028369;28;20704;-75
2021/05/05 03:58:01;;;;;;;0.40;0.30;;;;;;;;;;5010585;28;20181;-75
2021/05/05 04:00:27;;;;;;;6.03;1.75;;;;;;;;;;5011440;28;20178;-76
2021/05/05 04:02:53;;;;;;;0.00;0.00;;;;;;;;;;5028235;28;20162;-75
2021/05/05 04:05:19;;;;;;;0.38;0.38;;;;;;;;;;5027753;28;20209;-74
2021/05/05 04:07:46;;;;;;;0.00;0.00;;;;;;;;;;5010792;28;20555;-74
2021/05/05 04:10:12;;;;;;;0.40;0.40;;;;;;;;;;5010811;28;20228;-77
2021/05/05 04:12:39;;;;;;;1.30;0.43;;;;;;;;;;5028667;28;20166;-75
2021/05/05 04:15:06;;;;;;;0.35;0.35;;;;;;;;;;5010991;28;20353;-76
2021/05/05 04:17:32;;;;;;;0.30;0.30;;;;;;;;;;5010508;28;20212;-75
2021/05/05 04:19:59;;;;;;;0.10;0.10;;;;;;;;;;5010673;28;20261;-76
2021/05/05 04:22:26;;;;;;;0.00;0.00;;;;;;;;;;5028287;28;20232;-75
2021/05/05 04:24:53;;;;;;;0.17;0.17;;;;;;;;;;5010792;28;20213;-74
2021/05/05 04:27:20;;;;;;;0.10;0.10;;;;;;;;;;5029142;28;20166;-75
2021/05/05 04:29:46;;;;;;;0.10;0.10;;;;;;;;;;5010819;28;20178;-76
2021/05/05 04:32:13;;;;;;;0.25;0.25;;;;;;;;;;5028278;28;20162;-76
2021/05/05 04:34:41;;;;;;;0.10;0.10;;;;;;;;;;5010704;28;20186;-76
2021/05/05 04:37:07;;;;;;;0.38;0.38;;;;;;;;;;5010610;28;20193;-76
2021/05/05 04:39:34;;;;;;;0.13;0.13;;;;;;;;;;5010482;28;20182;-74
2021/05/05 04:42:01;;;;;;;0.10;0.10;;;;;;;;;;5028221;28;20193;-73
2021/05/05 04:44:28;;;;;;;0.43;0.43;;;;;;;;;;5010484;28;20222;-74
2021/05/05 04:46:54;;;;;;;1.65;0.25;;;;;;;;;;5010246;28;20229;-74
2021/05/05 04:49:20;;;;;;;1.00;0.85;;;;;;;;;;5010397;28;20178;-74
2021/05/05 04:51:46;;;;;;;0.13;0.13;;;;;;;;;;5010541;28;20182;-73
2021/05/05 04:54:13;;;;;;;0.00;0.00;;;;;;;;;;5027850;28;20174;-73
2021/05/05 04:56:40;;;;;;;0.45;0.45;;;;;;;;;;5010721;28;20718;-74
2021/05/05 04:59:06;;;;;;;0.15;0.15;;;;;;;;;;5028035;28;20163;-73
2021/05/05 05:01:32;;;;;;;0.22;0.22;;;;;;;;;;5028025;28;20161;-74
2021/05/05 05:03:58;;;;;;;0.30;0.30;;;;;;;;;;5027838;28;20178;-75
2021/05/05 05:06:25;;;;;;;0.17;0.17;;;;;;;;;;5010139;28;20194;-74
2021/05/05 05:08:51;;;;;;;0.70;0.70;;;;;;;;;;5027644;28;20540;-75
2021/05/05 05:11:17;;;;;;;1.17;1.08;;;;;;;;;;5027525;28;20289;-73
2021/05/05 05:13:44;;;;;;;0.43;0.43;;;;;;;;;;5027674;28;20170;-75
2021/05/05 05:16:10;;;;;;;1.27;1.17;;;;;;;;;;5029208;28;20324;-74
2021/05/05 05:18:36;;;;;;;0.20;0.20;;;;;;;;;;5013419;28;20572;-75
2021/05/05 05:21:04;;;;;;;0.25;0.25;;;;;;;;;;5013098;28;20221;-75
2021/05/05 05:23:30;;;;;;;0.20;0.20;;;;;;;;;;5013094;28;20234;-75
2021/05/05 05:25:57;;;;;;;0.50;0.50;;;;;;;;;;5030747;28;20214;-75
2021/05/05 05:28:24;;;;;;;1.00;1.00;;;;;;;;;;5031107;28;20162;-74
2021/05/05 05:30:50;;;;;;;1.33;0.90;;;;;;;;;;5013002;28;20162;-74
2021/05/05 05:33:16;;;;;;;0.80;0.80;;;;;;;;;;5030597;28;20207;-75
2021/05/05 05:35:42;;;;;;;1.20;0.60;;;;;;;;;;5013094;28;20193;-75
2021/05/05 05:38:09;;;;;;;0.65;0.60;;;;;;;;;;5012822;28;20193;-74
2021/05/05 05:40:35;;;;;;;2.22;0.77;;;;;;;;;;5030713;28;20158;-74
2021/05/05 05:43:02;;;;;;;0.47;0.20;;;;;;;;;;5030538;28;20169;-76
2021/05/05 05:45:28;;;;;;;0.10;0.10;;;;;;;;;;5030606;28;20213;-77
2021/05/05 05:47:54;;;;;;;0.98;0.43;;;;;;;;;;5012799;28;20581;-76
2021/05/05 05:50:21;;;;;;;4.60;0.35;;;;;;;;;;5012863;28;20171;-76
2021/05/05 05:52:47;;;;;;;0.40;0.40;;;;;;;;;;5013111;28;20174;-77
2021/05/05 05:55:15;;;;;;;0.40;0.40;;;;;;;;;;5030683;28;20258;-79
2021/05/05 05:57:43;;;;;;;0.70;0.70;;;;;;;;;;5012928;28;20204;-78
2021/05/05 06:00:10;;;;;;;10.05;1.10;;;;;;;;;;5012860;28;20180;-77
2021/05/05 06:02:37;;;;;;;1.23;0.55;;;;;;;;;;5029524;28;20217;-77
2021/05/05 06:05:03;;;;;;;0.70;0.70;;;;;;;;;;5030420;28;20209;-78
2021/05/05 06:07:30;;;;;;;0.52;0.52;;;;;;;;;;5030581;28;20292;-76
2021/05/05 06:09:56;;;;;;;0.20;0.20;;;;;;;;;;5030283;28;20177;-77
2021/05/05 06:12:22;;;;;;;1.40;0.93;;;;;;;;;;5012552;28;20253;-77
2021/05/05 06:14:48;;;;;;;4.25;1.00;;;;;;;;;;5012861;28;20276;-78
2021/05/05 06:17:15;;;;;;;0.10;0.10;;;;;;;;;;5030430;28;20197;-75
2021/05/05 06:19:41;;;;;;;1.25;0.43;;;;;;;;;;5017650;28;20180;-79
2021/05/05 06:22:07;;;;;;;2.53;0.82;;;;;;;;;;5026842;28;21296;-77
2021/05/05 06:24:33;;;;;;;0.20;0.20;;;;;;;;;;5011570;28;20213;-76
2021/05/05 06:26:59;;;;;;;1.33;1.23;;;;;;;;;;5028702;28;20257;-77
2021/05/05 06:29:26;;;;;;;0.57;0.57;;;;;;;;;;5029379;28;20196;-76
2021/05/05 06:31:52;;;;;;;0.55;0.55;;;;;;;;;;5011838;28;20297;-77
2021/05/05 06:34:18;;;;;;;0.55;0.55;;;;;;;;;;5028968;28;20181;-77
2021/05/05 06:36:44;;;;;;;2.03;0.85;;;;;;;;;;5029421;28;20212;-77
2021/05/05 06:39:11;;;;;;;8.65;0.55;;;;;;;;;;5029691;28;20562;-77
2021/05/05 06:41:41;;;;;;;0.93;0.40;;;;;;;;;;5029385;28;20153;-77
2021/05/05 06:44:08;;;;;;;0.20;0.20;;;;;;;;;;5011384;28;20186;-77
2021/05/05 06:46:36;;;;;;;1.35;1.25;;;;;;;;;;5011729;28;20191;-75
2021/05/05 06:49:09;;;;;;;0.73;0.73;;;;;;;;;;5011250;28;20173;-75
2021/05/05 06:51:35;;;;;;;0.45;0.45;;;;;;;;;;5012345;28;20196;-75
2021/05/05 06:54:01;;;;;;;0.30;0.30;;;;;;;;;;5030074;28;20162;-76
2021/05/05 06:56:27;;;;;;;0.40;0.40;;;;;;;;;;5030355;28;20224;-76
2021/05/05 06:58:53;;;;;;;1.08;0.50;;;;;;;;;;5029265;28;20216;-75
2021/05/05 07:01:21;;;;;;;2.58;1.15;;;;;;;;;;5010923;28;20173;-76
2021/05/05 07:03:47;;;;;;;0.40;0.40;;;;;;;;;;5011841;28;20169;-73
2021/05/05 07:06:13;;;;;;;0.22;0.22;;;;;;;;;;5028552;28;20232;-73
2021/05/05 07:08:39;;;;;;;0.85;0.85;;;;;;;;;;5029337;28;20532;-75
2021/05/05 07:11:06;;;;;;;0.90;0.90;;;;;;;;;;5027834;28;20237;-73
2021/05/05 07:13:33;;;;;;;0.65;0.65;;;;;;;;;;5016994;28;20182;-72
2021/05/05 07:15:59;;;;;;;0.32;0.32;;;;;;;;;;5027663;28;20201;-73
2021/05/05 07:18:25;;;;;;;0.40;0.40;;;;;;;;;;5011265;28;20630;-73
2021/05/05 07:20:52;;;;;;;0.30;0.30;;;;;;;;;;5028431;28;20240;-72
2021/05/05 07:23:18;;;;;;;0.30;0.25;;;;;;;;;;5028332;28;20251;-71
2021/05/05 07:25:44;;;;;;;0.68;0.60;;;;;;;;;;5028807;28;20189;-72
2021/05/05 07:28:10;;;;;;;0.15;0.15;;;;;;;;;;5011736;28;20185;-71
2021/05/05 07:30:37;;;;;;;0.30;0.28;;;;;;;;;;5029039;28;20190;-71
2021/05/05 07:33:03;;;;;;;0.10;0.10;;;;;;;;;;5011551;28;20182;-72
2021/05/05 07:35:30;;;;;;;1.02;0.47;;;;;;;;;;5028889;28;20157;-71
2021/05/05 07:50:50;;;;;;;0.25;0.25;;;;;;;;;;5028436;28;20189;-71
2021/05/05 07:53:16;;;;;;;0.43;0.35;;;;;;;;;;5028599;28;20169;-71
2021/05/05 07:55:42;;;;;;;0.32;0.30;;;;;;;;;;5011086;28;20177;-72
2021/05/05 07:58:08;;;;;;;0.55;0.55;;;;;;;;;;5010846;28;20177;-72
2021/05/05 08:00:34;;;;;;;1.05;1.05;;;;;;;;;;5028067;28;20725;-72
2021/05/05 08:03:01;;;;;;;0.47;0.47;;;;;;;;;;5012408;28;20185;-71
2021/05/05 08:05:27;;;;;;;0.28;0.28;;;;;;;;;;5012697;28;20208;-71
2021/05/05 08:07:54;;;;;;;0.70;0.70;;;;;;;;;;5010201;28;20237;-72
2021/05/05 08:10:20;;;;;;;0.52;0.32;;;;;;;;;;5021656;28;20194;-71
2021/05/05 08:12:46;;;;;;;8.25;0.77;;;;;;;;;;5008497;28;20162;-72
2021/05/05 08:15:13;;;;;;;0.20;0.20;;;;;;;;;;5008459;28;20261;-73
2021/05/05 08:17:39;;;;;;;0.70;0.70;;;;;;;;;;5006306;28;20318;-73
2021/05/05 08:20:06;;;;;;;1.10;0.30;;;;;;;;;;5000385;28;20285;-72
2021/05/05 08:22:33;;;;;;;0.32;0.32;;;;;;;;;;5015901;28;20236;-73
2021/05/05 08:24:59;;;;;;;0.38;0.20;;;;;;;;;;5027906;28;20219;-73
2021/05/05 08:27:26;;;;;;;0.00;0.00;;;;;;;;;;5027875;28;20189;-74
2021/05/05 08:29:52;;;;;;;0.17;0.17;;;;;;;;;;5028034;28;20224;-73
2021/05/05 08:32:19;;;;;;;0.77;0.40;;;;;;;;;;5009715;28;20165;-73
2021/05/05 08:34:45;;;;;;;0.20;0.20;;;;;;;;;;5027889;28;20176;-73
2021/05/05 08:37:12;;;;;;;0.38;0.35;;;;;;;;;;5009926;28;20185;-73
2021/05/05 08:39:38;;;;;;;0.52;0.30;;;;;;;;;;5027870;28;20317;-73
2021/05/05 08:42:05;;;;;;;0.38;0.35;;;;;;;;;;5028026;28;20212;-73
2021/05/05 08:44:32;;;;;;;0.43;0.40;;;;;;;;;;5027820;28;20189;-73
2021/05/05 08:46:58;;;;;;;0.20;0.20;;;;;;;;;;5009882;28;20236;-72
2021/05/05 08:49:24;;;;;;;0.80;0.30;;;;;;;;;;5028465;28;20627;-73
2021/05/05 08:51:51;;;;;;;0.10;0.10;;;;;;;;;;5031872;28;20165;-73
2021/05/05 08:54:18;;;;;;;0.13;0.13;;;;;;;;;;5031626;28;20169;-73
2021/05/05 08:56:45;;;;;;;0.40;0.40;;;;;;;;;;5022415;28;20234;-71
2021/05/05 08:59:15;;;;;;;7.93;1.85;;;;;;;;;;5033757;28;20259;-72
2021/05/05 09:01:43;;;;;;;1.08;0.77;;;;;;;;;;5051585;28;20213;-73
2021/05/05 09:04:09;;;;;;;0.65;0.65;;;;;;;;;;5051586;28;20168;-72
2021/05/05 09:06:44;;;;;;;0.43;0.40;;;;;;;;;;5033464;28;20188;-72
2021/05/05 09:09:10;;;;;;;3.15;0.70;;;;;;;;;;5051349;28;20665;-72
2021/05/05 09:11:46;;;;;;;0.30;0.30;;;;;;;;;;5051318;28;20220;-72
2021/05/05 09:14:12;;;;;;;4.80;2.20;;;;;;;;;;5051169;28;20164;-72
2021/05/05 09:16:39;;;;;;;1.35;0.60;;;;;;;;;;5033186;28;20291;-73
2021/05/05 09:19:10;;;;;;;0.20;0.20;;;;;;;;;;5033254;28;20279;-73
2021/05/05 09:22:02;;;;;;;0.75;0.55;;;;;;;;;;5050651;28;20167;-72
2021/05/05 09:24:30;;;;;;;2.33;0.73;;;;;;;;;;5007853;28;20226;-71
2021/05/05 09:26:58;;;;;;;0.68;0.63;;;;;;;;;;4993686;28;20206;-71
2021/05/05 09:29:47;;;;;;;0.43;0.43;;;;;;;;;;5011349;28;20213;-71
2021/05/05 09:32:36;;;;;;;0.45;0.45;;;;;;;;;;4993630;28;20186;-72
2021/05/05 09:35:03;;;;;;;0.15;0.15;;;;;;;;;;4992403;28;20816;-72
2021/05/05 09:37:30;;;;;;;0.25;0.25;;;;;;;;;;5011164;28;20249;-72
2021/05/05 09:40:02;;;;;;;0.25;0.25;;;;;;;;;;5010882;28;20270;-72
2021/05/05 09:42:29;;;;;;;0.25;0.25;;;;;;;;;;5011142;28;20177;-72
2021/05/05 09:45:05;;;;;;;1.35;0.40;;;;;;;;;;4992569;28;20190;-71
2021/05/05 09:47:50;;;;;;;2.03;0.65;;;;;;;;;;5010129;28;20580;-71
2021/05/05 09:50:55;;;;;;;0.57;0.20;;;;;;;;;;5010508;28;20397;-72
2021/05/05 09:53:21;;;;;;;0.20;0.20;;;;;;;;;;4929781;29;20176;-73
2021/05/05 09:55:53;;;;;;;0.50;0.50;;;;;;;;;;4930034;29;20193;-71
2021/05/05 09:58:30;;;;;;;0.52;0.52;;;;;;;;;;4912808;29;20273;-71
2021/05/05 10:01:22;;;;;;;0.85;0.38;;;;;;;;;;4912470;29;20197;-70
2021/05/05 10:03:52;;;;;;;0.63;0.40;;;;;;;;;;4910938;29;20273;-71
2021/05/05 10:06:21;;;;;;;0.20;0.10;;;;;;;;;;4912644;29;20268;-71
2021/05/05 10:08:52;;;;;;;0.10;0.10;;;;;;;;;;4912570;29;20166;-70
2021/05/05 10:11:24;;;;;;;0.13;0.13;;;;;;;;;;4912455;29;20230;-71
2021/05/05 10:13:52;;;;;;;0.13;0.13;;;;;;;;;;4912443;29;20170;-72
2021/05/05 10:16:21;;;;;;;0.50;0.43;;;;;;;;;;4912284;29;20240;-70
2021/05/05 10:18:48;;;;;;;0.45;0.45;;;;;;;;;;4912229;29;20200;-71
2021/05/05 10:21:15;;;;;;;0.10;0.10;;;;;;;;;;4912333;29;20185;-71
2021/05/05 10:23:45;;;;;;;0.63;0.32;;;;;;;;;;4955795;28;20213;-69
2021/05/05 10:26:12;;;;;;;0.52;0.52;;;;;;;;;;5029892;28;20201;-74
2021/05/05 10:28:40;;;;;;;2.45;1.25;;;;;;;;;;5012589;28;20211;-69
2021/05/05 10:31:09;;;;;;;0.17;0.17;;;;;;;;;;5008690;28;20178;-69
2021/05/05 10:33:39;;;;;;;1.85;1.08;;;;;;;;;;5010291;28;20158;-69
2021/05/05 10:36:23;;;;;;;0.35;0.35;;;;;;;;;;5010270;28;20205;-69
2021/05/05 10:38:50;;;;;;;0.20;0.20;;;;;;;;;;5010023;28;20189;-68
2021/05/05 10:41:16;;;;;;;0.20;0.20;;;;;;;;;;4992917;28;20177;-69
2021/05/05 10:43:49;;;;;;;0.22;0.22;;;;;;;;;;5010300;28;20174;-69
2021/05/05 10:46:30;;;;;;;0.20;0.20;;;;;;;;;;4992505;28;20198;-71
2021/05/05 10:49:13;;;;;;;1.35;0.85;;;;;;;;;;5009745;28;20146;-71
2021/05/05 10:51:45;;;;;;;1.75;0.52;;;;;;;;;;5009990;28;20165;-71
2021/05/05 10:54:15;;;;;;;0.32;0.32;;;;;;;;;;4992386;28;20178;-71
2021/05/05 10:56:45;;;;;;;0.93;0.30;;;;;;;;;;5009987;28;20676;-71
2021/05/05 10:59:12;;;;;;;0.43;0.43;;;;;;;;;;4992164;28;20190;-71
2021/05/05 11:01:40;;;;;;;1.85;0.63;;;;;;;;;;5009686;28;20174;-70
2021/05/05 11:04:07;;;;;;;0.10;0.10;;;;;;;;;;5009359;28;20167;-69
2021/05/05 11:06:36;;;;;;;0.50;0.50;;;;;;;;;;5009691;28;20282;-69
2021/05/05 11:09:12;;;;;;;0.10;0.10;;;;;;;;;;4991640;28;20217;-69
2021/05/05 11:11:39;;;;;;;0.20;0.20;;;;;;;;;;5009549;28;20186;-72
2021/05/05 11:14:05;;;;;;;0.10;0.10;;;;;;;;;;5009466;28;20166;-71
2021/05/05 11:16:58;;;;;;;1.20;0.80;;;;;;;;;;4991684;28;20343;-70
2021/05/05 11:19:40;;;;;;;0.10;0.10;;;;;;;;;;5002298;28;20224;-70
2021/05/05 11:22:06;;;;;;;2.15;0.40;;;;;;;;;;5008976;28;20272;-69
2021/05/05 11:24:34;;;;;;;30.02;1.42;;;;;;;;;;5009863;28;20209;-70
2021/05/05 11:27:00;;;;;;;0.45;0.45;;;;;;;;;;5011293;28;20162;-71
2021/05/05 11:29:31;;;;;;;0.77;0.77;;;;;;;;;;5011059;28;20208;-70
2021/05/05 11:32:01;;;;;;;0.43;0.40;;;;;;;;;;5042241;28;20181;-69
2021/05/05 11:34:27;;;;;;;0.10;0.10;;;;;;;;;;5048515;28;20153;-70
2021/05/05 11:37:13;;;;;;;2.17;0.68;;;;;;;;;;5048770;28;20176;-69
2021/05/05 11:39:39;;;;;;;1.00;0.52;;;;;;;;;;5047860;28;20200;-69
2021/05/05 11:42:11;;;;;;;0.47;0.47;;;;;;;;;;5048380;28;20168;-69
2021/05/05 11:44:42;;;;;;;0.40;0.40;;;;;;;;;;5048041;28;20206;-71
2021/05/05 11:47:12;;;;;;;0.40;0.40;;;;;;;;;;5048330;28;20153;-70
2021/05/05 11:49:39;;;;;;;0.20;0.20;;;;;;;;;;5048225;28;20189;-70
2021/05/05 11:52:21;;;;;;;0.38;0.38;;;;;;;;;;5030398;28;20185;-70
2021/05/05 11:54:51;;;;;;;1.20;1.10;;;;;;;;;;5048311;28;20164;-70
2021/05/05 11:57:18;;;;;;;0.15;0.15;;;;;;;;;;5046647;28;20266;-70
2021/05/05 11:59:45;;;;;;;0.10;0.10;;;;;;;;;;5029038;28;20208;-70
2021/05/05 12:02:11;;;;;;;0.38;0.20;;;;;;;;;;5047278;28;20280;-71
2021/05/05 12:04:42;;;;;;;0.50;0.25;;;;;;;;;;5047377;28;20250;-69
2021/05/05 12:07:10;;;;;;;0.50;0.50;;;;;;;;;;5047195;28;20240;-69
2021/05/05 12:09:41;;;;;;;0.38;0.38;;;;;;;;;;5029244;28;20347;-70
2021/05/05 12:12:28;;;;;;;0.73;0.28;;;;;;;;;;5029603;28;20176;-72
2021/05/05 12:15:04;;;;;;;0.32;0.32;;;;;;;;;;5029249;28;20195;-71
2021/05/05 12:17:34;;;;;;;0.20;0.20;;;;;;;;;;5046997;28;20145;-71
2021/05/05 12:20:08;;;;;;;0.50;0.50;;;;;;;;;;5029845;28;20177;-72
2021/05/05 12:22:36;;;;;;;1.60;0.93;;;;;;;;;;5044353;28;20221;-72
2021/05/05 12:25:08;;;;;;;0.20;0.20;;;;;;;;;;5027453;28;20208;-72
2021/05/05 12:27:34;;;;;;;0.73;0.30;;;;;;;;;;5010504;28;20158;-72
2021/05/05 12:30:01;;;;;;;0.20;0.20;;;;;;;;;;5010240;28;20169;-72
2021/05/05 12:32:41;;;;;;;0.13;0.13;;;;;;;;;;5027833;28;20228;-72
2021/05/05 12:35:09;;;;;;;0.20;0.20;;;;;;;;;;5009866;28;20274;-72
2021/05/05 12:37:35;;;;;;;0.20;0.20;;;;;;;;;;5027489;28;20162;-72
2021/05/05 12:40:01;;;;;;;0.20;0.20;;;;;;;;;;5009661;28;20169;-71
2021/05/05 12:42:34;;;;;;;0.28;0.28;;;;;;;;;;5009047;28;20170;-72
2021/05/05 12:45:08;;;;;;;0.17;0.17;;;;;;;;;;5009450;28;20197;-72
2021/05/05 12:47:35;;;;;;;0.20;0.20;;;;;;;;;;5027507;28;20166;-72
2021/05/05 12:50:01;;;;;;;1.17;0.57;;;;;;;;;;5027494;28;20304;-72
2021/05/05 12:52:32;;;;;;;0.63;0.13;;;;;;;;;;5027559;28;20158;-72
2021/05/05 12:55:00;;;;;;;0.10;0.10;;;;;;;;;;5027606;28;20181;-72
2021/05/05 12:57:27;;;;;;;0.20;0.20;;;;;;;;;;5022156;28;20186;-72
2021/05/05 12:59:54;;;;;;;0.32;0.32;;;;;;;;;;5027035;28;20182;-72
2021/05/05 13:02:23;;;;;;;4.13;1.45;;;;;;;;;;5009299;28;20170;-71
2021/05/05 13:04:49;;;;;;;0.10;0.10;;;;;;;;;;5009472;28;20196;-72
2021/05/05 13:07:29;;;;;;;3.40;1.10;;;;;;;;;;5009709;28;20162;-72
2021/05/05 13:10:33;;;;;;;0.20;0.20;;;;;;;;;;5009596;28;20162;-71
2021/05/05 13:13:08;;;;;;;0.43;0.43;;;;;;;;;;5026691;28;20185;-72
2021/05/05 13:32:34;;;;;;;0.10;0.10;;;;;;;;;;5044665;28;20247;-72
2021/05/05 13:35:19;;;;;;;0.47;0.47;;;;;;;;;;5047020;28;20165;-73
2021/05/05 13:37:53;;;;;;;0.25;0.25;;;;;;;;;;5031225;28;20197;-73
2021/05/05 13:40:19;;;;;;;0.52;0.30;;;;;;;;;;5032443;28;20177;-72
2021/05/05 13:42:45;;;;;;;0.20;0.20;;;;;;;;;;5032397;28;20252;-72
2021/05/05 13:45:13;;;;;;;0.30;0.30;;;;;;;;;;5050538;28;20209;-73
2021/05/05 13:47:46;;;;;;;0.73;0.73;;;;;;;;;;5050316;28;20247;-73
2021/05/05 13:50:12;;;;;;;0.38;0.15;;;;;;;;;;5050462;28;20153;-72
2021/05/05 13:52:38;;;;;;;0.85;0.85;;;;;;;;;;5032468;28;20169;-71
2021/05/05 13:55:05;;;;;;;0.25;0.25;;;;;;;;;;5050310;28;20193;-72
2021/05/05 13:57:31;;;;;;;0.98;0.98;;;;;;;;;;5032201;28;20181;-70
2021/05/05 13:59:58;;;;;;;0.20;0.20;;;;;;;;;;5006897;28;20214;-72
2021/05/05 14:02:25;;;;;;;2.35;0.75;;;;;;;;;;5025528;28;20296;-72
2021/05/05 14:04:51;;;;;;;0.45;0.35;;;;;;;;;;5030283;28;20205;-71
2021/05/05 14:07:17;;;;;;;0.55;0.55;;;;;;;;;;5030526;28;20151;-72
2021/05/05 14:09:43;;;;;;;0.68;0.63;;;;;;;;;;5029948;28;20201;-72
2021/05/05 14:12:09;;;;;;;0.10;0.10;;;;;;;;;;5030304;28;20168;-72
2021/05/05 14:14:37;;;;;;;0.10;0.10;;;;;;;;;;5030347;28;20193;-71
2021/05/05 14:17:03;;;;;;;0.00;0.00;;;;;;;;;;5012644;28;20526;-69
2021/05/05 14:19:29;;;;;;;0.30;0.30;;;;;;;;;;5012409;28;20206;-71
2021/05/05 14:21:56;;;;;;;0.10;0.10;;;;;;;;;;5011944;28;20174;-71
2021/05/05 14:24:22;;;;;;;0.10;0.10;;;;;;;;;;5025871;28;20695;-70
2021/05/05 14:26:48;;;;;;;0.13;0.13;;;;;;;;;;5013423;28;20182;-71
2021/05/05 14:29:15;;;;;;;0.30;0.30;;;;;;;;;;5009667;28;20170;-71
2021/05/05 14:31:42;;;;;;;1.63;0.68;;;;;;;;;;5027613;28;20172;-76
2021/05/05 14:34:09;;;;;;;0.25;0.25;;;;;;;;;;5011705;28;20174;-77
2021/05/05 14:36:35;;;;;;;0.10;0.10;;;;;;;;;;5012085;28;20193;-76
2021/05/05 14:39:04;;;;;;;0.98;0.98;;;;;;;;;;5011794;28;20192;-76
2021/05/05 14:41:32;;;;;;;9.43;1.40;;;;;;;;;;5029578;28;20297;-76
2021/05/05 14:44:16;;;;;;;39.63;2.28;;;;;;;;;;5011700;28;20184;-77
2021/05/05 14:49:09;;;;;;;0.55;0.55;;;;;;;;;;5036608;28;20250;-77
2021/05/05 14:51:36;;;;;;;0.00;0.00;;;;;;;;;;5014746;28;20189;-77
2021/05/05 14:54:03;;;;;;;0.00;0.00;;;;;;;;;;5014391;28;20166;-75
2021/05/05 14:56:29;;;;;;;0.08;0.08;;;;;;;;;;5030145;28;20194;-71
2021/05/05 14:59:01;;;;;;;0.00;0.00;;;;;;;;;;5031853;28;20176;-78
2021/05/05 15:01:28;;;;;;;0.80;0.75;;;;;;;;;;5010822;28;20218;-76
2021/05/05 15:03:54;;;;;;;1.23;0.63;;;;;;;;;;5008090;28;20206;-77
2021/05/05 15:06:45;;;;;;;0.10;0.10;;;;;;;;;;5009417;28;20518;-77
2021/05/05 15:36:05;;;;;;;0.00;0.00;;;;;;;;;;5021685;28;20201;-78
2021/05/05 15:48:23;;;;;;;0.10;0.10;;;;;;;;;;5009454;28;20170;-77
2021/05/05 15:50:50;;;;;;;0.20;0.20;;;;;;;;;;4991383;28;20181;-78
2021/05/05 15:53:21;;;;;;;0.00;0.00;;;;;;;;;;5009134;28;20481;-78
2021/05/05 15:55:52;;;;;;;0.10;0.10;;;;;;;;;;4991590;28;20178;-79
2021/05/05 15:58:21;;;;;;;0.05;0.05;;;;;;;;;;5009036;28;20171;-78